METAR AND TAF INFORMATION

METAR FOR YPXM
ADDS - METARS form results

(1658 UTC 30 June 2022)
Data provider http://aviationweather.gov/metar/data/
 
METAR text: YPXM 301644Z AUTO 10011G21KT 9999 // BKN014 BKN040 OVC063 25/23 Q1012
Conditions at: YPXM (CHRISTMAS ISL (P, AU) observed 1644 UTC 30 June 2022
Temperature: 25.0°C (77°F)
Dewpoint: 23.0°C (73°F) [RH = 89%]
Pressure (altimeter): 29.88 inches Hg (1012.0 mb)
Winds: from the E (100 degrees) at 13 MPH (11 knots; 5.7 m/s)
gusting to 24 MPH (21 knots; 10.8 m/s)
Visibility: 6 or more miles (10+ km)
Ceiling: 1400 feet AGL
Clouds: broken clouds at 1400 feet AGL
broken clouds at 4000 feet AGL
overcast cloud deck at 6300 feet AGL
Weather: no significant weather observed at this time

METAR text: YPXM 301630Z AUTO 10009KT 9999 // SCT040 BKN055 OVC064 25/23 Q1012
Conditions at: YPXM (CHRISTMAS ISL (P, AU) observed 1630 UTC 30 June 2022
Temperature: 25.0°C (77°F)
Dewpoint: 23.0°C (73°F) [RH = 89%]
Pressure (altimeter): 29.88 inches Hg (1012.0 mb)
Winds: from the E (100 degrees) at 10 MPH (9 knots; 4.6 m/s)
Visibility: 6 or more miles (10+ km)
Ceiling: 5500 feet AGL
Clouds: scattered clouds at 4000 feet AGL
broken clouds at 5500 feet AGL
overcast cloud deck at 6400 feet AGL
Weather: no significant weather observed at this time

METAR text: YPXM 301611Z AUTO 11007KT 9999 // SCT006 SCT034 SCT045 24/23 Q1012
Conditions at: YPXM (CHRISTMAS ISL (P, AU) observed 1611 UTC 30 June 2022
Temperature: 24.0°C (75°F)
Dewpoint: 23.0°C (73°F) [RH = 94%]
Pressure (altimeter): 29.88 inches Hg (1012.0 mb)
Winds: from the ESE (110 degrees) at 8 MPH (7 knots; 3.6 m/s)
Visibility: 6 or more miles (10+ km)
Ceiling: at least 12,000 feet AGL
Clouds: scattered clouds at 600 feet AGL
scattered clouds at 3400 feet AGL
scattered clouds at 4500 feet AGL
Weather: no significant weather observed at this time

METAR text: YPXM 301600Z AUTO 10009KT 9999 // SCT005 BKN012 BKN034 24/23 Q1012
Conditions at: YPXM (CHRISTMAS ISL (P, AU) observed 1600 UTC 30 June 2022
Temperature: 24.0°C (75°F)
Dewpoint: 23.0°C (73°F) [RH = 94%]
Pressure (altimeter): 29.88 inches Hg (1012.0 mb)
Winds: from the E (100 degrees) at 10 MPH (9 knots; 4.6 m/s)
Visibility: 6 or more miles (10+ km)
Ceiling: 1200 feet AGL
Clouds: scattered clouds at 500 feet AGL
broken clouds at 1200 feet AGL
broken clouds at 3400 feet AGL
Weather: no significant weather observed at this time

Forecast for: AMD
Text: TAF AMD YPXM 301130Z 3012/0112 11014KT 9999 BKN014
Forecast period: 1200 UTC 30 June 2022 to 0200 UTC 01 July 2022
Forecast type: FROM: standard forecast or significant change
Winds: from the ESE (110 degrees) at 16 MPH (14 knots; 7.2 m/s)
Visibility: 6 or more miles (10+ km)
Ceiling: 1400 feet AGL
Clouds: broken clouds at 1400 feet AGL
Weather: no significant weather forecast for this period
Text: FM010200 11020KT 9999 BKN016
Forecast period: 0200 to 1200 UTC 01 July 2022
Forecast type: FROM: standard forecast or significant change
Winds: from the ESE (110 degrees) at 23 MPH (20 knots; 10.3 m/s)
Visibility: 6 or more miles (10+ km)
Ceiling: 1600 feet AGL
Clouds: broken clouds at 1600 feet AGL
Weather: no significant weather forecast for this period
Text: TEMPO 3012/0106 2000 SHRA BKN005
Forecast period: 1200 UTC 30 June 2022 to 0600 UTC 01 July 2022
Forecast type: TEMPORARY: The following changes expected for less than half the time period
Visibility: 1.24 miles (2.00 km)
Ceiling: 500 feet AGL
Clouds: broken clouds at 500 feet AGL
Weather: SHRA  (rain showers)

 

AIRPORT MAP

 

RUNWAY INFORMATION

Runway 18 Runway length 6900 ft Runway width 148 ft
Runway elevation 916 ft Runway displaced threshold 0 ft Runway heading 175
Runway 36 Runway length 6900 ft Runway width 148 ft
Runway elevation 810 ft Runway displaced threshold 0 ft Runway heading 355

 

AIRPORT FREQUENCIES

Type CTAF Name CTAF Frequency 122.8 MHZ
Type FSS Name RDO Frequency 347 MHZ

 

AIRPORT NEAR NAVIGATION AIDS

Type VOR-DME Name Christmas Island Frequency 112400 KHZ